sensor_id;sensor_type;location;lat;lon;timestamp;temperature;humidity
12053;DHT22;6087;48.982;12.064;2023-02-28T00:00:37;0.20;1.00
12053;DHT22;6087;48.982;12.064;2023-02-28T00:03:22;0.10;1.00
12053;DHT22;6087;48.982;12.064;2023-02-28T00:05:50;0.10;1.00
12053;DHT22;6087;48.982;12.064;2023-02-28T00:08:17;0.10;1.00
12053;DHT22;6087;48.982;12.064;2023-02-28T00:10:44;0.10;1.00
12053;DHT22;6087;48.982;12.064;2023-02-28T00:13:11;0.10;1.00
12053;DHT22;6087;48.982;12.064;2023-02-28T00:15:38;0.00;1.00
12053;DHT22;6087;48.982;12.064;2023-02-28T00:18:05;0.10;1.00
12053;DHT22;6087;48.982;12.064;2023-02-28T00:20:34;0.00;1.00
12053;DHT22;6087;48.982;12.064;2023-02-28T00:23:01;0.00;1.00
12053;DHT22;6087;48.982;12.064;2023-02-28T00:25:28;0.00;1.00
12053;DHT22;6087;48.982;12.064;2023-02-28T00:27:55;0.00;1.00
12053;DHT22;6087;48.982;12.064;2023-02-28T00:30:23;0.00;1.00
12053;DHT22;6087;48.982;12.064;2023-02-28T00:32:51;0.00;1.00
12053;DHT22;6087;48.982;12.064;2023-02-28T00:35:18;0.00;1.00
12053;DHT22;6087;48.982;12.064;2023-02-28T00:37:48;0.00;1.00
12053;DHT22;6087;48.982;12.064;2023-02-28T00:40:15;0.00;1.00
12053;DHT22;6087;48.982;12.064;2023-02-28T00:42:42;0.00;1.00
12053;DHT22;6087;48.982;12.064;2023-02-28T00:45:10;0.00;1.00
12053;DHT22;6087;48.982;12.064;2023-02-28T00:47:37;0.00;1.00
12053;DHT22;6087;48.982;12.064;2023-02-28T00:50:05;0.00;1.00
12053;DHT22;6087;48.982;12.064;2023-02-28T00:52:32;0.00;1.00
12053;DHT22;6087;48.982;12.064;2023-02-28T00:55:01;0.00;1.00
12053;DHT22;6087;48.982;12.064;2023-02-28T00:57:28;-0.10;1.00
12053;DHT22;6087;48.982;12.064;2023-02-28T00:59:55;0.00;1.00
12053;DHT22;6087;48.982;12.064;2023-02-28T01:02:23;0.00;1.00
12053;DHT22;6087;48.982;12.064;2023-02-28T01:04:50;0.00;1.00
12053;DHT22;6087;48.982;12.064;2023-02-28T01:07:17;0.00;1.00
12053;DHT22;6087;48.982;12.064;2023-02-28T01:09:44;-0.10;1.00
12053;DHT22;6087;48.982;12.064;2023-02-28T01:12:13;-0.10;1.00
12053;DHT22;6087;48.982;12.064;2023-02-28T01:14:40;-0.10;1.00
12053;DHT22;6087;48.982;12.064;2023-02-28T01:17:08;-0.10;1.00
12053;DHT22;6087;48.982;12.064;2023-02-28T01:19:35;-0.20;1.00
12053;DHT22;6087;48.982;12.064;2023-02-28T01:22:04;-0.20;1.00
12053;DHT22;6087;48.982;12.064;2023-02-28T01:24:31;-0.20;1.00
12053;DHT22;6087;48.982;12.064;2023-02-28T01:26:58;-0.30;1.00
12053;DHT22;6087;48.982;12.064;2023-02-28T01:29:27;-0.20;1.00
12053;DHT22;6087;48.982;12.064;2023-02-28T01:31:54;-0.30;1.00
12053;DHT22;6087;48.982;12.064;2023-02-28T01:34:22;-0.30;1.00
12053;DHT22;6087;48.982;12.064;2023-02-28T01:36:49;-0.30;1.00
12053;DHT22;6087;48.982;12.064;2023-02-28T01:39:16;-0.30;1.00
12053;DHT22;6087;48.982;12.064;2023-02-28T01:41:44;-0.40;1.00
12053;DHT22;6087;48.982;12.064;2023-02-28T01:47:16;-0.40;1.00
12053;DHT22;6087;48.982;12.064;2023-02-28T01:49:44;-0.50;1.00
12053;DHT22;6087;48.982;12.064;2023-02-28T01:52:12;-0.50;1.00
12053;DHT22;6087;48.982;12.064;2023-02-28T01:54:45;-0.50;1.00
12053;DHT22;6087;48.982;12.064;2023-02-28T01:57:16;-0.50;1.00
12053;DHT22;6087;48.982;12.064;2023-02-28T01:59:49;-0.40;1.00
12053;DHT22;6087;48.982;12.064;2023-02-28T02:02:23;-0.50;1.00
12053;DHT22;6087;48.982;12.064;2023-02-28T02:04:54;-0.50;1.00
12053;DHT22;6087;48.982;12.064;2023-02-28T02:07:25;-0.50;1.00
12053;DHT22;6087;48.982;12.064;2023-02-28T02:10:00;-0.50;1.00
12053;DHT22;6087;48.982;12.064;2023-02-28T02:12:36;-0.50;1.00
12053;DHT22;6087;48.982;12.064;2023-02-28T02:15:12;-0.50;1.00
12053;DHT22;6087;48.982;12.064;2023-02-28T02:17:45;-0.60;1.00
12053;DHT22;6087;48.982;12.064;2023-02-28T02:20:46;-0.60;1.00
12053;DHT22;6087;48.982;12.064;2023-02-28T02:26:45;-0.50;1.00
12053;DHT22;6087;48.982;12.064;2023-02-28T02:29:33;-0.60;1.00
12053;DHT22;6087;48.982;12.064;2023-02-28T02:35:11;-0.60;1.00
12053;DHT22;6087;48.982;12.064;2023-02-28T02:37:44;-0.60;1.00
12053;DHT22;6087;48.982;12.064;2023-02-28T02:40:17;-0.60;1.00
12053;DHT22;6087;48.982;12.064;2023-02-28T02:42:54;-0.60;1.00
12053;DHT22;6087;48.982;12.064;2023-02-28T02:45:26;-0.70;1.00
12053;DHT22;6087;48.982;12.064;2023-02-28T02:47:57;-0.60;1.00
12053;DHT22;6087;48.982;12.064;2023-02-28T02:50:30;-0.70;1.00
12053;DHT22;6087;48.982;12.064;2023-02-28T02:53:00;-0.70;1.00
12053;DHT22;6087;48.982;12.064;2023-02-28T02:55:30;-0.60;1.00
12053;DHT22;6087;48.982;12.064;2023-02-28T02:58:02;-0.60;1.00
12053;DHT22;6087;48.982;12.064;2023-02-28T03:00:33;-0.60;1.00
12053;DHT22;6087;48.982;12.064;2023-02-28T03:03:01;-0.70;2.50
12053;DHT22;6087;48.982;12.064;2023-02-28T03:05:35;-0.70;4.70
12053;DHT22;6087;48.982;12.064;2023-02-28T03:08:04;-0.60;1.00
12053;DHT22;6087;48.982;12.064;2023-02-28T03:10:35;-0.60;1.00
12053;DHT22;6087;48.982;12.064;2023-02-28T03:13:20;-0.70;1.00
12053;DHT22;6087;48.982;12.064;2023-02-28T03:16:01;-0.70;1.00
12053;DHT22;6087;48.982;12.064;2023-02-28T03:18:40;-0.60;1.00
12053;DHT22;6087;48.982;12.064;2023-02-28T03:21:20;-0.60;1.00
12053;DHT22;6087;48.982;12.064;2023-02-28T03:23:56;-0.60;1.00
12053;DHT22;6087;48.982;12.064;2023-02-28T03:26:27;-0.60;1.00
12053;DHT22;6087;48.982;12.064;2023-02-28T03:29:08;-0.60;1.00
12053;DHT22;6087;48.982;12.064;2023-02-28T03:31:41;-0.60;1.00
12053;DHT22;6087;48.982;12.064;2023-02-28T03:34:13;-0.50;1.00
12053;DHT22;6087;48.982;12.064;2023-02-28T03:36:48;-0.50;1.00
12053;DHT22;6087;48.982;12.064;2023-02-28T03:39:20;-0.50;1.00
12053;DHT22;6087;48.982;12.064;2023-02-28T03:41:54;-0.50;1.00
12053;DHT22;6087;48.982;12.064;2023-02-28T03:44:25;-0.60;1.00
12053;DHT22;6087;48.982;12.064;2023-02-28T03:47:02;-0.60;1.00
12053;DHT22;6087;48.982;12.064;2023-02-28T03:49:34;-0.60;1.00
12053;DHT22;6087;48.982;12.064;2023-02-28T03:52:06;-0.60;1.00
12053;DHT22;6087;48.982;12.064;2023-02-28T03:54:41;-0.60;1.00
12053;DHT22;6087;48.982;12.064;2023-02-28T03:57:25;-0.60;1.00
12053;DHT22;6087;48.982;12.064;2023-02-28T03:59:58;-0.60;1.00
12053;DHT22;6087;48.982;12.064;2023-02-28T04:02:27;-0.70;1.00
12053;DHT22;6087;48.982;12.064;2023-02-28T04:04:54;-0.60;1.00
12053;DHT22;6087;48.982;12.064;2023-02-28T04:07:23;-0.70;1.00
12053;DHT22;6087;48.982;12.064;2023-02-28T04:09:51;-0.70;1.00
12053;DHT22;6087;48.982;12.064;2023-02-28T04:12:18;-0.70;1.00
12053;DHT22;6087;48.982;12.064;2023-02-28T04:14:48;-0.60;1.00
12053;DHT22;6087;48.982;12.064;2023-02-28T04:17:18;-0.60;1.00
12053;DHT22;6087;48.982;12.064;2023-02-28T04:19:45;-0.70;1.00
12053;DHT22;6087;48.982;12.064;2023-02-28T04:22:12;-0.70;1.00
12053;DHT22;6087;48.982;12.064;2023-02-28T04:24:41;-0.70;1.00
12053;DHT22;6087;48.982;12.064;2023-02-28T04:27:08;-0.70;1.00
12053;DHT22;6087;48.982;12.064;2023-02-28T04:29:39;-0.70;1.00
12053;DHT22;6087;48.982;12.064;2023-02-28T04:32:10;-0.70;1.00
12053;DHT22;6087;48.982;12.064;2023-02-28T04:34:37;-0.70;1.00
12053;DHT22;6087;48.982;12.064;2023-02-28T04:37:05;-0.70;1.00
12053;DHT22;6087;48.982;12.064;2023-02-28T04:39:35;-0.70;1.00
12053;DHT22;6087;48.982;12.064;2023-02-28T04:42:04;-0.70;1.00
12053;DHT22;6087;48.982;12.064;2023-02-28T04:44:31;-0.70;1.00
12053;DHT22;6087;48.982;12.064;2023-02-28T04:46:58;-0.70;1.00
12053;DHT22;6087;48.982;12.064;2023-02-28T04:49:26;-0.70;1.00
12053;DHT22;6087;48.982;12.064;2023-02-28T04:51:53;-0.80;6.60
12053;DHT22;6087;48.982;12.064;2023-02-28T04:54:21;-0.80;8.40
12053;DHT22;6087;48.982;12.064;2023-02-28T04:56:48;-0.80;7.10
12053;DHT22;6087;48.982;12.064;2023-02-28T04:59:17;-0.80;12.30
12053;DHT22;6087;48.982;12.064;2023-02-28T05:01:47;-0.70;8.00
12053;DHT22;6087;48.982;12.064;2023-02-28T05:04:14;-0.80;9.70
12053;DHT22;6087;48.982;12.064;2023-02-28T05:06:41;-0.70;15.80
12053;DHT22;6087;48.982;12.064;2023-02-28T05:09:09;-0.80;19.90
12053;DHT22;6087;48.982;12.064;2023-02-28T05:11:44;-0.80;15.10
12053;DHT22;6087;48.982;12.064;2023-02-28T05:14:18;-0.80;18.10
12053;DHT22;6087;48.982;12.064;2023-02-28T05:16:45;-0.80;21.10
12053;DHT22;6087;48.982;12.064;2023-02-28T05:19:12;-0.80;12.70
12053;DHT22;6087;48.982;12.064;2023-02-28T05:21:40;-0.80;14.80
12053;DHT22;6087;48.982;12.064;2023-02-28T05:24:10;-0.70;21.00
12053;DHT22;6087;48.982;12.064;2023-02-28T05:26:41;-0.70;14.80
12053;DHT22;6087;48.982;12.064;2023-02-28T05:29:08;-0.70;6.60
12053;DHT22;6087;48.982;12.064;2023-02-28T05:31:38;-0.80;15.80
12053;DHT22;6087;48.982;12.064;2023-02-28T05:34:05;-0.70;13.70
12053;DHT22;6087;48.982;12.064;2023-02-28T05:36:33;-0.70;4.40
12053;DHT22;6087;48.982;12.064;2023-02-28T05:39:00;-0.80;10.40
12053;DHT22;6087;48.982;12.064;2023-02-28T05:41:32;-0.70;6.30
12053;DHT22;6087;48.982;12.064;2023-02-28T05:43:59;-0.70;1.00
12053;DHT22;6087;48.982;12.064;2023-02-28T05:46:26;-0.70;1.00
12053;DHT22;6087;48.982;12.064;2023-02-28T05:48:55;-0.70;1.00
12053;DHT22;6087;48.982;12.064;2023-02-28T05:51:25;-0.60;1.00
12053;DHT22;6087;48.982;12.064;2023-02-28T05:53:52;-0.70;1.00
12053;DHT22;6087;48.982;12.064;2023-02-28T05:56:26;-0.60;1.00
12053;DHT22;6087;48.982;12.064;2023-02-28T05:58:56;-0.70;1.00
12053;DHT22;6087;48.982;12.064;2023-02-28T06:01:32;-0.70;1.00
12053;DHT22;6087;48.982;12.064;2023-02-28T06:04:02;-0.70;1.00
12053;DHT22;6087;48.982;12.064;2023-02-28T06:06:30;-0.70;1.00
12053;DHT22;6087;48.982;12.064;2023-02-28T06:09:00;-0.60;1.00
12053;DHT22;6087;48.982;12.064;2023-02-28T06:11:30;-0.60;1.00
12053;DHT22;6087;48.982;12.064;2023-02-28T06:13:58;-0.60;1.00
12053;DHT22;6087;48.982;12.064;2023-02-28T06:16:27;-0.60;1.00
12053;DHT22;6087;48.982;12.064;2023-02-28T06:19:03;-0.60;1.00
12053;DHT22;6087;48.982;12.064;2023-02-28T06:21:30;-0.50;1.00
12053;DHT22;6087;48.982;12.064;2023-02-28T06:23:58;-0.60;1.00
12053;DHT22;6087;48.982;12.064;2023-02-28T06:26:26;-0.50;1.00
12053;DHT22;6087;48.982;12.064;2023-02-28T06:28:53;-0.50;1.00
12053;DHT22;6087;48.982;12.064;2023-02-28T06:31:21;-0.50;1.00
12053;DHT22;6087;48.982;12.064;2023-02-28T06:33:50;-0.50;1.00
12053;DHT22;6087;48.982;12.064;2023-02-28T06:36:18;-0.50;1.00
12053;DHT22;6087;48.982;12.064;2023-02-28T06:38:45;-0.40;1.00
12053;DHT22;6087;48.982;12.064;2023-02-28T06:41:17;-0.40;1.00
12053;DHT22;6087;48.982;12.064;2023-02-28T06:43:44;-0.40;1.00
12053;DHT22;6087;48.982;12.064;2023-02-28T06:46:13;-0.40;1.00
12053;DHT22;6087;48.982;12.064;2023-02-28T06:48:44;-0.40;1.00
12053;DHT22;6087;48.982;12.064;2023-02-28T06:51:13;-0.40;1.00
12053;DHT22;6087;48.982;12.064;2023-02-28T06:53:42;-0.40;1.00
12053;DHT22;6087;48.982;12.064;2023-02-28T06:56:11;-0.30;1.00
12053;DHT22;6087;48.982;12.064;2023-02-28T06:58:39;-0.30;1.00
12053;DHT22;6087;48.982;12.064;2023-02-28T07:01:06;-0.30;1.00
12053;DHT22;6087;48.982;12.064;2023-02-28T07:03:35;-0.30;1.00
12053;DHT22;6087;48.982;12.064;2023-02-28T07:06:04;-0.20;1.00
12053;DHT22;6087;48.982;12.064;2023-02-28T07:08:31;-0.20;1.00
12053;DHT22;6087;48.982;12.064;2023-02-28T07:10:59;-0.20;1.00
12053;DHT22;6087;48.982;12.064;2023-02-28T07:13:27;-0.20;1.00
12053;DHT22;6087;48.982;12.064;2023-02-28T07:15:54;-0.10;1.00
12053;DHT22;6087;48.982;12.064;2023-02-28T07:18:22;-0.20;1.00
12053;DHT22;6087;48.982;12.064;2023-02-28T07:20:49;-0.10;1.00
12053;DHT22;6087;48.982;12.064;2023-02-28T07:23:20;-0.10;1.00
12053;DHT22;6087;48.982;12.064;2023-02-28T07:25:48;0.00;1.00
12053;DHT22;6087;48.982;12.064;2023-02-28T07:28:17;0.00;1.00
12053;DHT22;6087;48.982;12.064;2023-02-28T07:30:44;0.10;1.00
12053;DHT22;6087;48.982;12.064;2023-02-28T07:33:11;0.10;1.00
12053;DHT22;6087;48.982;12.064;2023-02-28T07:35:38;0.10;1.00
12053;DHT22;6087;48.982;12.064;2023-02-28T07:38:05;0.20;1.00
12053;DHT22;6087;48.982;12.064;2023-02-28T07:40:34;0.20;1.00
12053;DHT22;6087;48.982;12.064;2023-02-28T07:43:02;0.30;1.00
12053;DHT22;6087;48.982;12.064;2023-02-28T07:45:31;0.30;1.00
12053;DHT22;6087;48.982;12.064;2023-02-28T07:48:00;0.40;1.00
12053;DHT22;6087;48.982;12.064;2023-02-28T07:50:27;0.40;1.00
12053;DHT22;6087;48.982;12.064;2023-02-28T07:52:56;0.50;1.00
12053;DHT22;6087;48.982;12.064;2023-02-28T07:55:23;0.50;1.00
12053;DHT22;6087;48.982;12.064;2023-02-28T07:57:50;0.60;1.00
12053;DHT22;6087;48.982;12.064;2023-02-28T08:00:18;0.70;1.00
12053;DHT22;6087;48.982;12.064;2023-02-28T08:02:46;0.80;1.00
12053;DHT22;6087;48.982;12.064;2023-02-28T08:05:14;0.90;1.00
12053;DHT22;6087;48.982;12.064;2023-02-28T08:07:41;0.90;1.00
12053;DHT22;6087;48.982;12.064;2023-02-28T08:10:09;1.00;1.00
12053;DHT22;6087;48.982;12.064;2023-02-28T08:12:36;1.00;1.00
12053;DHT22;6087;48.982;12.064;2023-02-28T08:15:04;1.10;1.00
12053;DHT22;6087;48.982;12.064;2023-02-28T08:17:31;1.20;1.00
12053;DHT22;6087;48.982;12.064;2023-02-28T08:20:00;1.20;1.00
12053;DHT22;6087;48.982;12.064;2023-02-28T08:22:27;1.30;1.00
12053;DHT22;6087;48.982;12.064;2023-02-28T08:24:54;1.30;1.00
12053;DHT22;6087;48.982;12.064;2023-02-28T08:27:21;1.30;1.00
12053;DHT22;6087;48.982;12.064;2023-02-28T08:29:48;1.40;1.00
12053;DHT22;6087;48.982;12.064;2023-02-28T08:32:15;1.40;1.00
12053;DHT22;6087;48.982;12.064;2023-02-28T08:34:42;1.40;1.00
12053;DHT22;6087;48.982;12.064;2023-02-28T08:37:11;1.50;1.00
12053;DHT22;6087;48.982;12.064;2023-02-28T08:39:38;1.50;1.00
12053;DHT22;6087;48.982;12.064;2023-02-28T08:42:05;1.60;1.00
12053;DHT22;6087;48.982;12.064;2023-02-28T08:44:33;1.60;1.00
12053;DHT22;6087;48.982;12.064;2023-02-28T08:47:00;1.70;1.00
12053;DHT22;6087;48.982;12.064;2023-02-28T08:49:27;1.70;1.00
12053;DHT22;6087;48.982;12.064;2023-02-28T08:51:54;1.70;1.00
12053;DHT22;6087;48.982;12.064;2023-02-28T08:54:24;1.80;1.00
12053;DHT22;6087;48.982;12.064;2023-02-28T08:56:51;1.80;1.00
12053;DHT22;6087;48.982;12.064;2023-02-28T08:59:18;1.80;1.00
12053;DHT22;6087;48.982;12.064;2023-02-28T09:01:46;1.90;1.00
12053;DHT22;6087;48.982;12.064;2023-02-28T09:04:16;1.90;1.00
12053;DHT22;6087;48.982;12.064;2023-02-28T09:06:43;2.00;1.00
12053;DHT22;6087;48.982;12.064;2023-02-28T09:09:19;2.00;1.00
12053;DHT22;6087;48.982;12.064;2023-02-28T09:11:48;2.00;1.00
12053;DHT22;6087;48.982;12.064;2023-02-28T09:14:15;2.00;1.00
12053;DHT22;6087;48.982;12.064;2023-02-28T09:16:42;2.10;1.00
12053;DHT22;6087;48.982;12.064;2023-02-28T09:19:10;2.00;1.00
12053;DHT22;6087;48.982;12.064;2023-02-28T09:21:38;2.10;1.00
12053;DHT22;6087;48.982;12.064;2023-02-28T09:24:06;2.30;1.00
12053;DHT22;6087;48.982;12.064;2023-02-28T09:26:33;2.20;1.00
12053;DHT22;6087;48.982;12.064;2023-02-28T09:29:02;2.30;1.00
12053;DHT22;6087;48.982;12.064;2023-02-28T09:31:29;2.30;1.00
12053;DHT22;6087;48.982;12.064;2023-02-28T09:33:57;2.40;1.00
12053;DHT22;6087;48.982;12.064;2023-02-28T09:36:26;2.40;1.00
12053;DHT22;6087;48.982;12.064;2023-02-28T09:38:59;2.40;1.00
12053;DHT22;6087;48.982;12.064;2023-02-28T09:41:37;2.40;1.00
12053;DHT22;6087;48.982;12.064;2023-02-28T09:44:22;2.40;1.00
12053;DHT22;6087;48.982;12.064;2023-02-28T09:46:54;2.50;1.00
12053;DHT22;6087;48.982;12.064;2023-02-28T09:49:25;2.50;1.00
12053;DHT22;6087;48.982;12.064;2023-02-28T09:51:57;2.50;1.00
12053;DHT22;6087;48.982;12.064;2023-02-28T09:54:29;2.60;1.00
12053;DHT22;6087;48.982;12.064;2023-02-28T09:56:59;2.60;1.00
12053;DHT22;6087;48.982;12.064;2023-02-28T09:59:41;2.60;1.00
12053;DHT22;6087;48.982;12.064;2023-02-28T10:02:21;2.60;1.00
12053;DHT22;6087;48.982;12.064;2023-02-28T10:04:53;2.70;1.00
12053;DHT22;6087;48.982;12.064;2023-02-28T10:07:39;2.70;1.00
12053;DHT22;6087;48.982;12.064;2023-02-28T10:10:26;2.90;1.00
12053;DHT22;6087;48.982;12.064;2023-02-28T10:12:57;2.90;1.00
12053;DHT22;6087;48.982;12.064;2023-02-28T10:15:29;2.90;1.00
12053;DHT22;6087;48.982;12.064;2023-02-28T10:17:58;2.90;1.00
12053;DHT22;6087;48.982;12.064;2023-02-28T10:20:28;3.00;1.00
12053;DHT22;6087;48.982;12.064;2023-02-28T10:23:00;3.00;1.00
12053;DHT22;6087;48.982;12.064;2023-02-28T10:25:34;3.10;1.00
12053;DHT22;6087;48.982;12.064;2023-02-28T10:28:09;3.30;1.00
12053;DHT22;6087;48.982;12.064;2023-02-28T10:30:41;3.70;1.00
12053;DHT22;6087;48.982;12.064;2023-02-28T10:33:17;3.90;1.00
12053;DHT22;6087;48.982;12.064;2023-02-28T10:35:45;4.20;1.00
12053;DHT22;6087;48.982;12.064;2023-02-28T10:38:16;4.60;1.00
12053;DHT22;6087;48.982;12.064;2023-02-28T10:40:44;4.80;1.00
12053;DHT22;6087;48.982;12.064;2023-02-28T10:43:22;4.80;1.00
12053;DHT22;6087;48.982;12.064;2023-02-28T10:46:01;4.60;1.00
12053;DHT22;6087;48.982;12.064;2023-02-28T10:48:37;4.50;1.00
12053;DHT22;6087;48.982;12.064;2023-02-28T10:51:07;4.40;1.00
12053;DHT22;6087;48.982;12.064;2023-02-28T10:53:38;4.30;1.00
12053;DHT22;6087;48.982;12.064;2023-02-28T10:56:15;4.30;1.00
12053;DHT22;6087;48.982;12.064;2023-02-28T10:58:49;4.30;1.00
12053;DHT22;6087;48.982;12.064;2023-02-28T11:01:19;4.30;1.00
12053;DHT22;6087;48.982;12.064;2023-02-28T11:03:47;4.30;1.00
12053;DHT22;6087;48.982;12.064;2023-02-28T11:06:17;4.30;1.00
12053;DHT22;6087;48.982;12.064;2023-02-28T11:08:47;4.30;1.00
12053;DHT22;6087;48.982;12.064;2023-02-28T11:11:16;4.30;1.00
12053;DHT22;6087;48.982;12.064;2023-02-28T11:13:45;4.30;1.00
12053;DHT22;6087;48.982;12.064;2023-02-28T11:16:14;4.30;1.00
12053;DHT22;6087;48.982;12.064;2023-02-28T11:18:47;4.40;1.00
12053;DHT22;6087;48.982;12.064;2023-02-28T11:21:18;4.60;1.00
12053;DHT22;6087;48.982;12.064;2023-02-28T11:23:47;4.60;1.00
12053;DHT22;6087;48.982;12.064;2023-02-28T11:26:17;4.70;1.00
12053;DHT22;6087;48.982;12.064;2023-02-28T11:29:09;4.60;1.00
12053;DHT22;6087;48.982;12.064;2023-02-28T11:31:39;4.60;1.00
12053;DHT22;6087;48.982;12.064;2023-02-28T11:34:24;4.70;1.00
12053;DHT22;6087;48.982;12.064;2023-02-28T11:36:54;4.70;1.00
12053;DHT22;6087;48.982;12.064;2023-02-28T11:39:23;4.90;1.00
12053;DHT22;6087;48.982;12.064;2023-02-28T11:42:00;5.00;1.00
12053;DHT22;6087;48.982;12.064;2023-02-28T11:44:43;5.20;1.00
12053;DHT22;6087;48.982;12.064;2023-02-28T11:47:16;5.30;1.00
12053;DHT22;6087;48.982;12.064;2023-02-28T11:49:51;5.40;1.00
12053;DHT22;6087;48.982;12.064;2023-02-28T11:52:33;5.40;1.00
12053;DHT22;6087;48.982;12.064;2023-02-28T11:55:14;5.40;1.00
12053;DHT22;6087;48.982;12.064;2023-02-28T12:03:27;5.50;1.00
12053;DHT22;6087;48.982;12.064;2023-02-28T12:06:07;5.60;1.00
12053;DHT22;6087;48.982;12.064;2023-02-28T12:08:44;5.60;1.00
12053;DHT22;6087;48.982;12.064;2023-02-28T12:11:19;5.70;1.00
12053;DHT22;6087;48.982;12.064;2023-02-28T12:13:56;6.00;1.00
12053;DHT22;6087;48.982;12.064;2023-02-28T12:16:46;6.40;1.00
12053;DHT22;6087;48.982;12.064;2023-02-28T12:19:19;7.00;1.00
12053;DHT22;6087;48.982;12.064;2023-02-28T12:25:42;7.40;1.00
12053;DHT22;6087;48.982;12.064;2023-02-28T12:28:18;7.40;1.00
12053;DHT22;6087;48.982;12.064;2023-02-28T12:30:56;7.50;1.00
12053;DHT22;6087;48.982;12.064;2023-02-28T12:33:28;7.50;1.00
12053;DHT22;6087;48.982;12.064;2023-02-28T12:36:03;7.60;1.00
12053;DHT22;6087;48.982;12.064;2023-02-28T12:38:36;7.70;1.00
12053;DHT22;6087;48.982;12.064;2023-02-28T12:41:11;8.10;1.00
12053;DHT22;6087;48.982;12.064;2023-02-28T12:43:43;8.50;1.00
12053;DHT22;6087;48.982;12.064;2023-02-28T12:46:16;9.00;1.00
12053;DHT22;6087;48.982;12.064;2023-02-28T12:48:48;9.50;1.00
12053;DHT22;6087;48.982;12.064;2023-02-28T12:51:17;9.70;1.00
12053;DHT22;6087;48.982;12.064;2023-02-28T12:53:56;10.30;1.00
12053;DHT22;6087;48.982;12.064;2023-02-28T12:56:33;10.70;1.00
12053;DHT22;6087;48.982;12.064;2023-02-28T12:59:13;11.10;1.00
12053;DHT22;6087;48.982;12.064;2023-02-28T13:02:01;12.40;1.00
12053;DHT22;6087;48.982;12.064;2023-02-28T13:04:52;14.20;1.00
12053;DHT22;6087;48.982;12.064;2023-02-28T13:10:23;17.60;1.00
12053;DHT22;6087;48.982;12.064;2023-02-28T13:12:53;19.10;1.00
12053;DHT22;6087;48.982;12.064;2023-02-28T13:15:25;20.20;1.00
12053;DHT22;6087;48.982;12.064;2023-02-28T13:17:56;21.10;1.00
12053;DHT22;6087;48.982;12.064;2023-02-28T13:20:25;22.10;1.00
12053;DHT22;6087;48.982;12.064;2023-02-28T13:22:54;22.90;1.00
12053;DHT22;6087;48.982;12.064;2023-02-28T13:25:53;23.40;1.00
12053;DHT22;6087;48.982;12.064;2023-02-28T13:34:46;24.80;1.00
12053;DHT22;6087;48.982;12.064;2023-02-28T13:37:36;25.20;1.00
12053;DHT22;6087;48.982;12.064;2023-02-28T13:40:27;25.60;1.00
12053;DHT22;6087;48.982;12.064;2023-02-28T13:43:02;26.00;1.00
12053;DHT22;6087;48.982;12.064;2023-02-28T13:45:30;25.90;1.00
12053;DHT22;6087;48.982;12.064;2023-02-28T13:48:04;26.20;1.00
12053;DHT22;6087;48.982;12.064;2023-02-28T13:50:43;26.40;1.00
12053;DHT22;6087;48.982;12.064;2023-02-28T13:56:25;26.70;1.00
12053;DHT22;6087;48.982;12.064;2023-02-28T13:58:57;26.90;1.00
12053;DHT22;6087;48.982;12.064;2023-02-28T14:01:35;27.10;1.00
12053;DHT22;6087;48.982;12.064;2023-02-28T14:04:37;27.60;1.00
12053;DHT22;6087;48.982;12.064;2023-02-28T14:07:17;27.80;1.00
12053;DHT22;6087;48.982;12.064;2023-02-28T14:09:48;27.60;1.00
12053;DHT22;6087;48.982;12.064;2023-02-28T14:12:54;27.50;1.00
12053;DHT22;6087;48.982;12.064;2023-02-28T14:15:37;27.60;1.00
12053;DHT22;6087;48.982;12.064;2023-02-28T14:18:14;27.80;1.00
12053;DHT22;6087;48.982;12.064;2023-02-28T14:20:42;27.50;1.00
12053;DHT22;6087;48.982;12.064;2023-02-28T14:23:17;27.50;1.00
12053;DHT22;6087;48.982;12.064;2023-02-28T14:25:53;27.50;1.00
12053;DHT22;6087;48.982;12.064;2023-02-28T14:28:38;27.40;1.00
12053;DHT22;6087;48.982;12.064;2023-02-28T14:31:10;27.20;1.00
12053;DHT22;6087;48.982;12.064;2023-02-28T14:33:50;27.10;1.00
12053;DHT22;6087;48.982;12.064;2023-02-28T14:36:27;26.80;1.00
12053;DHT22;6087;48.982;12.064;2023-02-28T14:39:03;26.60;1.00
12053;DHT22;6087;48.982;12.064;2023-02-28T14:41:44;26.10;1.00
12053;DHT22;6087;48.982;12.064;2023-02-28T14:44:17;25.50;1.00
12053;DHT22;6087;48.982;12.064;2023-02-28T14:46:46;25.30;1.00
12053;DHT22;6087;48.982;12.064;2023-02-28T14:49:24;24.90;1.00
12053;DHT22;6087;48.982;12.064;2023-02-28T14:52:03;24.20;1.00
12053;DHT22;6087;48.982;12.064;2023-02-28T14:54:36;22.80;1.00
12053;DHT22;6087;48.982;12.064;2023-02-28T14:57:03;21.50;1.00
12053;DHT22;6087;48.982;12.064;2023-02-28T14:59:32;21.00;1.00
12053;DHT22;6087;48.982;12.064;2023-02-28T15:02:18;20.00;1.00
12053;DHT22;6087;48.982;12.064;2023-02-28T15:04:56;19.10;1.00
12053;DHT22;6087;48.982;12.064;2023-02-28T15:07:23;18.20;1.00
12053;DHT22;6087;48.982;12.064;2023-02-28T15:10:18;17.30;1.00
12053;DHT22;6087;48.982;12.064;2023-02-28T15:12:50;16.30;1.00
12053;DHT22;6087;48.982;12.064;2023-02-28T15:15:24;15.60;1.00
12053;DHT22;6087;48.982;12.064;2023-02-28T15:17:56;15.00;1.00
12053;DHT22;6087;48.982;12.064;2023-02-28T15:20:24;14.50;1.00
12053;DHT22;6087;48.982;12.064;2023-02-28T15:22:53;13.90;1.00
12053;DHT22;6087;48.982;12.064;2023-02-28T15:25:24;13.70;1.00
12053;DHT22;6087;48.982;12.064;2023-02-28T15:27:53;13.40;1.00
12053;DHT22;6087;48.982;12.064;2023-02-28T15:30:25;13.60;1.00
12053;DHT22;6087;48.982;12.064;2023-02-28T15:33:17;13.80;1.00
12053;DHT22;6087;48.982;12.064;2023-02-28T15:35:44;13.60;1.00
12053;DHT22;6087;48.982;12.064;2023-02-28T15:38:16;13.20;1.00
12053;DHT22;6087;48.982;12.064;2023-02-28T15:40:46;12.50;1.00
12053;DHT22;6087;48.982;12.064;2023-02-28T15:43:24;11.80;1.00
12053;DHT22;6087;48.982;12.064;2023-02-28T15:45:56;11.20;1.00
12053;DHT22;6087;48.982;12.064;2023-02-28T15:48:26;10.90;1.00
12053;DHT22;6087;48.982;12.064;2023-02-28T15:50:56;10.60;1.00
12053;DHT22;6087;48.982;12.064;2023-02-28T15:53:26;10.40;1.00
12053;DHT22;6087;48.982;12.064;2023-02-28T15:55:59;10.00;1.00
12053;DHT22;6087;48.982;12.064;2023-02-28T15:58:27;9.70;1.00
12053;DHT22;6087;48.982;12.064;2023-02-28T16:01:06;9.40;1.00
12053;DHT22;6087;48.982;12.064;2023-02-28T16:03:40;9.10;1.00
12053;DHT22;6087;48.982;12.064;2023-02-28T16:09:12;8.70;1.00
12053;DHT22;6087;48.982;12.064;2023-02-28T16:11:43;8.60;1.00
12053;DHT22;6087;48.982;12.064;2023-02-28T16:14:15;8.30;1.00
12053;DHT22;6087;48.982;12.064;2023-02-28T16:16:46;8.20;1.00
12053;DHT22;6087;48.982;12.064;2023-02-28T16:19:14;8.10;1.00
12053;DHT22;6087;48.982;12.064;2023-02-28T16:21:42;7.90;1.00
12053;DHT22;6087;48.982;12.064;2023-02-28T16:24:09;7.80;1.00
12053;DHT22;6087;48.982;12.064;2023-02-28T16:26:38;7.60;1.00
12053;DHT22;6087;48.982;12.064;2023-02-28T16:29:09;7.40;1.00
12053;DHT22;6087;48.982;12.064;2023-02-28T16:31:40;7.30;1.00
12053;DHT22;6087;48.982;12.064;2023-02-28T16:34:07;7.20;1.00
12053;DHT22;6087;48.982;12.064;2023-02-28T16:36:34;7.10;1.00
12053;DHT22;6087;48.982;12.064;2023-02-28T16:39:01;7.00;1.00
12053;DHT22;6087;48.982;12.064;2023-02-28T16:41:29;6.90;1.00
12053;DHT22;6087;48.982;12.064;2023-02-28T16:43:57;6.80;1.00
12053;DHT22;6087;48.982;12.064;2023-02-28T16:46:34;6.70;1.00
12053;DHT22;6087;48.982;12.064;2023-02-28T16:49:01;6.50;1.00
12053;DHT22;6087;48.982;12.064;2023-02-28T16:51:29;6.50;1.00
12053;DHT22;6087;48.982;12.064;2023-02-28T16:53:56;6.40;1.00